Almont, ND

10:42 AM MDT on March 29, 2015 (GMT -0600)
Glen Ullin Rgnl, Glen Ullin, | | Change Station
CLOSE
Current Station
Airport
Location: Glen Ullin Rgnl, Glen Ullin,,
Elevation: 2087 ft
Nearby Weather Stations

Elev 2087 ft 46.81 °N, 101.86 °W | Updated 7 minutes ago

Clear
Clear
46 °F
Feels Like 39 °F
N
20
Wind Variable Wind from NW

Today
High -- | Low -- °F
--% Chance of Precip.
Yesterday
High -- | Low -- °F
Precip. -- in
6:31 AM 7:10 PM
Waxing Gibbous, 72% visible
Pressure 30.08 in
Visibility 10.0 miles
Clouds Clear
Windchill 39 °F
Dew Point 34 °F
Humidity 62%
Rainfall 0.08 in
Snow Depth Not available.
UV 5 out of 12
Pollen 5.30 out of 12
Air Quality Not available.
Flu Activity Not available.
METAR KD57 291635Z AUTO 31017KT 10SM CLR 08/01 A3008 RMK AO2

More Conditions Fewer Conditions

Pressure 30.08 in
Visibility 10.0 miles
Clouds Clear
Windchill 39 °F
Dew Point 34 °F
Humidity 62%
Rainfall 0.08 in
Snow Depth Not available.
UV 5 out of 12
Pollen 5.30 out of 12
Air Quality Not available.
Flu Activity Not available.
METAR KD57 291635Z AUTO 31017KT 10SM CLR 08/01 A3008 RMK AO2

More Conditions Fewer Conditions

10-Day Weather Forecast

Almanac

Astronomy

Mar. 29, 2015 Rise Set
Actual Time
Civil Twilight
Nautical Twilight
Astronomical Twilight
Moon
Length of Visible Light
Length of Day
Tomorrow will be .
, % of the Moon is Illuminated

Today's Extremes

State Highs State Lows

Community

WunderPhotos

Upload Photos

1,809,289 photos uploaded!

WunderBlogs® & News

Nearby

Air Quality

  Air Quality AQ Index Pollutant
Not available.

Snow Depth

Station Depth Elevation

Earthquake Activity

City Distance Mag. Time & Date
Minimum magnitude displayed is 2.5.

Coastal Water Temperatures

Place Temperature

Stations

Nearby Weather Stations

Station Location Temp. Windchill Dew Point Humidity Wind Precip. Elev Updated Type